createdAt,value
2023-03-29T00:00:39.673Z,76.90
2023-03-29T00:03:09.157Z,76.90
2023-03-29T00:05:41.015Z,76.80
2023-03-29T00:08:11.877Z,76.80
2023-03-29T00:10:41.927Z,76.90
2023-03-29T00:13:10.768Z,76.80
2023-03-29T00:15:39.303Z,76.70
2023-03-29T00:18:07.904Z,77.10
2023-03-29T00:20:36.451Z,76.90
2023-03-29T00:23:05.395Z,76.80
2023-03-29T00:25:33.909Z,76.90
2023-03-29T00:28:02.469Z,76.90
2023-03-29T00:30:31.056Z,76.80
2023-03-29T00:32:59.817Z,76.80
2023-03-29T00:35:30.232Z,76.80
2023-03-29T00:37:58.832Z,76.70
2023-03-29T00:40:29.017Z,76.50
2023-03-29T00:42:58.068Z,76.50
2023-03-29T00:45:29.771Z,76.30
2023-03-29T00:48:00.809Z,76.20
2023-03-29T00:50:32.654Z,76.30
2023-03-29T00:53:03.380Z,76.20
2023-03-29T00:55:33.986Z,76.10
2023-03-29T00:58:04.217Z,76.10
2023-03-29T01:00:34.342Z,76.10
2023-03-29T01:03:04.456Z,76.10
2023-03-29T01:05:34.577Z,76.00
2023-03-29T01:08:07.418Z,76.00
2023-03-29T01:10:39.016Z,75.90
2023-03-29T01:13:13.802Z,76.00
2023-03-29T01:15:44.661Z,76.00
2023-03-29T01:18:13.898Z,75.70
2023-03-29T01:20:55.310Z,75.60
2023-03-29T01:23:44.949Z,75.80
2023-03-29T01:26:17.897Z,75.90
2023-03-29T01:28:47.943Z,75.80
2023-03-29T01:31:18.184Z,75.90
2023-03-29T01:33:48.173Z,76.10
2023-03-29T01:36:19.069Z,76.00
2023-03-29T01:38:52.191Z,75.90
2023-03-29T01:41:23.213Z,75.80
2023-03-29T01:43:53.263Z,75.80
2023-03-29T01:46:23.385Z,75.70
2023-03-29T01:48:53.358Z,75.70
2023-03-29T01:51:23.442Z,75.40
2023-03-29T01:54:02.604Z,75.20
2023-03-29T01:56:33.056Z,75.30
2023-03-29T01:59:03.907Z,75.30
2023-03-29T02:01:34.050Z,75.40
2023-03-29T02:04:05.066Z,75.10
2023-03-29T02:06:37.515Z,74.40
2023-03-29T02:09:07.846Z,74.50
2023-03-29T02:11:37.538Z,74.10
2023-03-29T02:14:07.409Z,73.90
2023-03-29T02:16:39.186Z,74.00
2023-03-29T02:19:08.638Z,74.00
2023-03-29T02:21:41.425Z,73.60
2023-03-29T02:24:13.192Z,73.40
2023-03-29T02:26:42.704Z,73.70
2023-03-29T02:29:11.608Z,73.50
2023-03-29T02:31:48.177Z,73.30
2023-03-29T02:34:19.194Z,73.60
2023-03-29T02:36:50.289Z,73.40
2023-03-29T02:39:20.924Z,73.50
2023-03-29T02:41:51.205Z,73.50
2023-03-29T02:44:27.629Z,73.40
2023-03-29T02:47:03.674Z,73.40
2023-03-29T02:49:33.677Z,73.20
2023-03-29T02:52:03.867Z,73.20
2023-03-29T02:54:32.613Z,73.50
2023-03-29T02:57:02.581Z,73.70
2023-03-29T02:59:31.355Z,73.30
2023-03-29T03:02:00.422Z,73.20
2023-03-29T03:04:32.306Z,73.50
2023-03-29T03:07:06.933Z,73.60
2023-03-29T03:09:36.824Z,73.10
2023-03-29T03:12:05.493Z,73.70
2023-03-29T03:14:35.438Z,73.70
2023-03-29T03:17:05.201Z,73.80
2023-03-29T03:19:36.449Z,73.90
2023-03-29T03:22:05.951Z,73.80
2023-03-29T03:24:35.370Z,73.80
2023-03-29T03:27:06.268Z,74.00
2023-03-29T03:29:37.772Z,74.40
2023-03-29T03:32:09.577Z,74.40
2023-03-29T03:34:58.479Z,74.80
2023-03-29T03:37:27.621Z,74.60
2023-03-29T03:39:57.935Z,74.50
2023-03-29T03:45:18.454Z,74.30
2023-03-29T03:47:57.641Z,74.40
2023-03-29T03:50:44.390Z,74.50
2023-03-29T03:53:13.000Z,74.50
2023-03-29T03:55:50.679Z,74.20
2023-03-29T03:58:20.911Z,74.40
2023-03-29T04:00:50.757Z,74.30
2023-03-29T04:03:22.424Z,74.40
2023-03-29T04:05:52.218Z,74.40
2023-03-29T04:08:22.403Z,74.30
2023-03-29T04:11:02.076Z,74.40
2023-03-29T04:13:32.524Z,74.40
2023-03-29T04:16:08.965Z,74.30
2023-03-29T04:18:38.896Z,74.50
2023-03-29T04:21:07.730Z,74.60
2023-03-29T04:23:37.126Z,74.50
2023-03-29T04:26:07.555Z,74.20
2023-03-29T04:28:50.977Z,74.20
2023-03-29T04:31:22.963Z,74.30
2023-03-29T04:33:59.768Z,74.40
2023-03-29T04:36:27.571Z,74.30
2023-03-29T04:38:56.768Z,74.20
2023-03-29T04:41:27.204Z,74.50
2023-03-29T04:44:06.638Z,74.60
2023-03-29T04:46:37.755Z,74.30
2023-03-29T04:49:26.029Z,74.20
2023-03-29T04:51:55.405Z,74.10
2023-03-29T04:54:27.359Z,74.10
2023-03-29T04:57:01.419Z,73.90
2023-03-29T04:59:37.631Z,73.80
2023-03-29T05:02:08.992Z,73.80
2023-03-29T05:04:40.490Z,73.50
2023-03-29T05:07:11.566Z,73.60
2023-03-29T05:09:41.630Z,73.80
2023-03-29T05:12:10.930Z,73.50
2023-03-29T05:14:46.982Z,73.10
2023-03-29T05:17:15.627Z,73.20
2023-03-29T05:19:44.721Z,73.40
2023-03-29T05:22:15.052Z,73.60
2023-03-29T05:24:46.154Z,73.20
2023-03-29T05:27:17.037Z,73.30
2023-03-29T05:29:47.657Z,73.40
2023-03-29T05:32:20.696Z,73.00
2023-03-29T05:34:49.333Z,73.40
2023-03-29T05:37:20.128Z,73.40
2023-03-29T05:39:51.727Z,73.20
2023-03-29T05:42:22.492Z,73.20
2023-03-29T05:45:05.240Z,73.20
2023-03-29T05:47:33.850Z,73.30
2023-03-29T05:50:02.417Z,73.50
2023-03-29T05:52:32.342Z,73.40
2023-03-29T05:55:00.991Z,73.20
2023-03-29T05:57:29.693Z,73.00
2023-03-29T05:59:58.229Z,72.80
2023-03-29T06:02:28.442Z,72.80
2023-03-29T06:05:00.270Z,72.90
2023-03-29T06:07:38.214Z,73.20
2023-03-29T06:10:17.823Z,73.20
2023-03-29T06:12:49.297Z,73.00
2023-03-29T06:15:19.673Z,73.10
2023-03-29T06:17:51.405Z,73.10
2023-03-29T06:20:22.428Z,73.30
2023-03-29T06:22:53.314Z,73.30
2023-03-29T06:25:24.984Z,73.40
2023-03-29T06:27:54.710Z,73.40
2023-03-29T06:30:23.988Z,73.50
2023-03-29T06:32:54.450Z,73.00
2023-03-29T06:35:26.923Z,72.80
2023-03-29T06:37:57.733Z,72.80
2023-03-29T06:40:28.179Z,72.60
2023-03-29T06:42:57.959Z,72.50
2023-03-29T06:45:35.436Z,72.60
2023-03-29T06:48:08.418Z,72.60
2023-03-29T06:50:38.241Z,72.20
2023-03-29T06:53:15.536Z,72.10
2023-03-29T06:55:45.755Z,71.90
2023-03-29T06:58:18.750Z,71.70
2023-03-29T07:00:47.641Z,71.70
2023-03-29T07:03:22.441Z,71.80
2023-03-29T07:05:52.759Z,71.70
2023-03-29T07:08:22.601Z,71.60
2023-03-29T07:11:03.110Z,71.50
2023-03-29T07:13:49.365Z,71.80
2023-03-29T07:16:20.227Z,71.40
2023-03-29T07:18:51.290Z,71.20
2023-03-29T07:21:24.270Z,71.30
2023-03-29T07:23:52.930Z,70.90
2023-03-29T07:26:29.754Z,71.20
2023-03-29T07:28:54.845Z,71.10
2023-03-29T07:31:23.451Z,71.10
2023-03-29T07:33:53.752Z,71.00
2023-03-29T07:36:22.739Z,70.60
2023-03-29T07:38:52.434Z,70.90
2023-03-29T07:41:23.161Z,70.70
2023-03-29T07:43:54.082Z,70.90
2023-03-29T07:46:24.845Z,70.80
2023-03-29T07:48:55.417Z,71.30
2023-03-29T07:51:24.249Z,71.80
2023-03-29T07:53:54.486Z,71.50
2023-03-29T07:56:24.956Z,71.50
2023-03-29T07:58:55.192Z,71.00
2023-03-29T08:01:23.816Z,72.00
2023-03-29T08:04:12.223Z,71.90
2023-03-29T08:06:51.343Z,71.60
2023-03-29T08:09:20.115Z,71.40
2023-03-29T08:11:48.808Z,72.10
2023-03-29T08:14:23.566Z,71.70
2023-03-29T08:16:56.811Z,71.30
2023-03-29T08:19:26.915Z,71.40
2023-03-29T08:21:57.424Z,70.50
2023-03-29T08:24:27.061Z,69.70
2023-03-29T08:26:57.380Z,69.00
2023-03-29T08:29:26.952Z,69.00
2023-03-29T08:31:57.079Z,68.40
2023-03-29T08:34:25.908Z,68.40
2023-03-29T08:37:05.240Z,68.10
2023-03-29T08:39:35.469Z,67.80
2023-03-29T08:42:19.004Z,67.10
2023-03-29T08:44:49.936Z,66.20
2023-03-29T08:47:20.375Z,66.60
2023-03-29T08:49:50.168Z,66.10
2023-03-29T08:52:32.153Z,65.90
2023-03-29T08:55:03.193Z,66.10
2023-03-29T08:57:35.044Z,66.10
2023-03-29T09:00:06.824Z,66.70
2023-03-29T09:02:37.598Z,67.50
2023-03-29T09:05:27.987Z,67.60
2023-03-29T09:07:58.347Z,67.80
2023-03-29T09:10:28.576Z,68.50
2023-03-29T09:12:58.756Z,67.80
2023-03-29T09:15:35.117Z,68.60
2023-03-29T09:18:07.035Z,69.60
2023-03-29T09:20:52.367Z,67.20
2023-03-29T09:23:39.924Z,67.30
2023-03-29T09:26:18.029Z,67.00
2023-03-29T09:29:09.937Z,66.70
2023-03-29T09:31:40.243Z,65.40
2023-03-29T09:34:17.496Z,64.60
2023-03-29T09:36:57.968Z,64.20
2023-03-29T09:39:27.980Z,63.10
2023-03-29T09:42:03.665Z,63.80
2023-03-29T09:44:34.492Z,64.00
2023-03-29T09:47:25.025Z,64.30
2023-03-29T09:49:55.140Z,63.80
2023-03-29T09:52:23.742Z,63.90
2023-03-29T09:54:54.111Z,63.00
2023-03-29T09:57:31.193Z,62.00
2023-03-29T10:00:02.635Z,63.50
2023-03-29T10:02:32.942Z,62.80
2023-03-29T10:05:04.032Z,62.50
2023-03-29T10:07:37.104Z,62.40
2023-03-29T10:10:07.507Z,63.00
2023-03-29T10:12:36.498Z,63.10
2023-03-29T10:15:06.187Z,63.00
2023-03-29T10:17:36.513Z,63.00
2023-03-29T10:20:05.650Z,63.70
2023-03-29T10:22:37.436Z,63.50
2023-03-29T10:25:07.480Z,64.30
2023-03-29T10:27:36.106Z,65.20
2023-03-29T10:30:06.153Z,65.00
2023-03-29T10:32:36.030Z,64.40
2023-03-29T10:35:06.019Z,64.80
2023-03-29T10:37:34.602Z,63.40
2023-03-29T10:40:03.647Z,66.20
2023-03-29T10:42:32.180Z,63.60
2023-03-29T10:45:00.693Z,64.40
2023-03-29T10:47:30.727Z,64.60
2023-03-29T10:49:59.241Z,64.00
2023-03-29T10:52:29.271Z,62.70
2023-03-29T10:54:59.536Z,62.30
2023-03-29T10:57:32.693Z,62.70
2023-03-29T11:00:02.815Z,62.90
2023-03-29T11:02:32.981Z,62.90
2023-03-29T11:05:03.508Z,64.20
2023-03-29T11:07:33.619Z,64.80
2023-03-29T11:10:23.686Z,65.80
2023-03-29T11:12:56.804Z,65.70
2023-03-29T11:15:29.872Z,65.80
2023-03-29T11:18:02.841Z,66.00
2023-03-29T11:20:35.658Z,66.30
2023-03-29T11:23:14.706Z,66.20
2023-03-29T11:25:59.731Z,67.10
2023-03-29T11:28:29.819Z,67.10
2023-03-29T11:31:00.094Z,66.30
2023-03-29T11:33:47.494Z,66.90
2023-03-29T11:36:18.069Z,65.10
2023-03-29T11:38:51.032Z,65.50
2023-03-29T11:41:21.144Z,65.70
2023-03-29T11:43:51.154Z,65.30
2023-03-29T11:46:21.643Z,64.80
2023-03-29T11:48:51.737Z,64.40
2023-03-29T11:51:22.456Z,65.20
2023-03-29T11:53:58.225Z,66.20
2023-03-29T11:56:31.022Z,67.00
2023-03-29T11:59:01.360Z,66.60
2023-03-29T12:01:31.432Z,66.40
2023-03-29T12:04:04.435Z,66.60
2023-03-29T12:06:43.558Z,66.20
2023-03-29T12:09:22.420Z,66.90
2023-03-29T12:11:55.153Z,66.20
2023-03-29T12:14:27.817Z,65.80
2023-03-29T12:17:02.014Z,65.80
2023-03-29T12:19:31.903Z,65.40
2023-03-29T12:22:01.169Z,65.50
2023-03-29T12:24:32.760Z,65.50
2023-03-29T12:27:07.244Z,64.90
2023-03-29T12:29:37.324Z,64.90
2023-03-29T12:32:10.443Z,64.90
2023-03-29T12:34:57.553Z,64.90
2023-03-29T12:37:47.305Z,64.90
2023-03-29T12:40:27.534Z,64.10
2023-03-29T12:43:05.051Z,64.20
2023-03-29T12:45:39.069Z,64.90
2023-03-29T12:48:08.442Z,64.30
2023-03-29T12:50:38.573Z,64.60
2023-03-29T12:53:17.930Z,64.90
2023-03-29T12:55:51.225Z,64.70
2023-03-29T12:58:27.576Z,64.10
2023-03-29T13:00:57.705Z,64.20
2023-03-29T13:03:30.645Z,64.30
2023-03-29T13:06:00.754Z,63.40
2023-03-29T13:08:31.043Z,63.50
2023-03-29T13:10:59.724Z,63.80
2023-03-29T13:13:36.642Z,63.90
2023-03-29T13:16:12.821Z,63.80
2023-03-29T13:18:42.950Z,63.70
2023-03-29T13:21:13.000Z,63.10
2023-03-29T13:24:01.667Z,63.70
2023-03-29T13:26:35.015Z,63.40
2023-03-29T13:29:08.296Z,64.00
2023-03-29T13:31:41.186Z,63.60
2023-03-29T13:34:11.299Z,63.80
2023-03-29T13:36:41.438Z,64.10
2023-03-29T13:39:17.632Z,63.70
2023-03-29T13:41:47.943Z,63.90
2023-03-29T13:44:30.137Z,64.10
2023-03-29T13:47:03.249Z,64.40
2023-03-29T13:49:33.166Z,65.00
2023-03-29T13:52:03.302Z,64.40
2023-03-29T13:54:36.425Z,64.60
2023-03-29T13:57:07.584Z,64.80
2023-03-29T13:59:41.012Z,64.50
2023-03-29T14:02:11.489Z,64.80
2023-03-29T14:04:41.807Z,64.90
2023-03-29T14:07:11.875Z,65.00
2023-03-29T14:09:48.347Z,65.10
2023-03-29T14:12:17.755Z,65.20
2023-03-29T14:14:58.341Z,65.30
2023-03-29T14:17:21.801Z,65.20
2023-03-29T14:19:51.032Z,65.30
2023-03-29T14:22:21.289Z,65.80
2023-03-29T14:24:54.012Z,65.60
2023-03-29T14:27:22.640Z,65.70
2023-03-29T14:29:52.230Z,66.10
2023-03-29T14:32:22.317Z,66.30
2023-03-29T14:34:51.489Z,66.00
2023-03-29T14:37:24.364Z,66.10
2023-03-29T14:39:53.237Z,66.50
2023-03-29T14:42:26.600Z,66.80
2023-03-29T14:44:59.764Z,67.20
2023-03-29T14:47:29.917Z,67.70
2023-03-29T14:50:00.684Z,67.30
2023-03-29T14:52:30.627Z,67.80
2023-03-29T14:55:00.819Z,67.50
2023-03-29T14:57:31.616Z,68.50
2023-03-29T15:00:01.206Z,68.30
2023-03-29T15:02:33.671Z,68.30
2023-03-29T15:05:07.380Z,68.20
2023-03-29T15:07:37.171Z,68.60
2023-03-29T15:10:06.544Z,68.60
2023-03-29T15:12:36.591Z,68.80
2023-03-29T15:15:06.936Z,69.00
2023-03-29T15:17:50.528Z,68.90
2023-03-29T15:20:11.213Z,68.80
2023-03-29T15:22:40.581Z,68.80
2023-03-29T15:25:19.440Z,68.70
2023-03-29T15:27:49.518Z,69.00
2023-03-29T15:30:18.709Z,69.30
2023-03-29T15:32:47.311Z,69.20
2023-03-29T15:35:17.422Z,69.40
2023-03-29T15:37:46.007Z,69.80
2023-03-29T15:40:16.381Z,69.80
2023-03-29T15:42:45.364Z,70.00
2023-03-29T15:45:15.583Z,69.90
2023-03-29T15:47:44.338Z,69.80
2023-03-29T15:50:12.802Z,70.00
2023-03-29T15:52:41.459Z,69.80
2023-03-29T15:55:11.244Z,69.90
2023-03-29T15:57:39.894Z,70.10
2023-03-29T16:00:10.070Z,70.20
2023-03-29T16:02:42.206Z,70.20
2023-03-29T16:05:12.901Z,70.70
2023-03-29T16:07:41.573Z,70.70
2023-03-29T16:10:10.379Z,70.50
2023-03-29T16:12:39.048Z,70.60
2023-03-29T16:15:09.109Z,70.70
2023-03-29T16:17:37.744Z,70.80
2023-03-29T16:20:07.058Z,70.80
2023-03-29T16:22:35.810Z,71.00
2023-03-29T16:25:05.271Z,71.00
2023-03-29T16:27:33.873Z,71.10
2023-03-29T16:30:02.471Z,70.90
2023-03-29T16:32:31.866Z,71.20
2023-03-29T16:35:00.429Z,71.20
2023-03-29T16:37:29.018Z,71.20
2023-03-29T16:39:58.076Z,71.30
2023-03-29T16:42:26.662Z,71.20
2023-03-29T16:44:56.373Z,71.20
2023-03-29T16:47:24.956Z,71.50
2023-03-29T16:49:53.532Z,71.70
2023-03-29T16:52:23.177Z,71.60
2023-03-29T16:54:52.882Z,71.60
2023-03-29T16:57:21.550Z,71.40
2023-03-29T16:59:50.281Z,71.60
2023-03-29T17:02:18.800Z,71.70
2023-03-29T17:04:47.408Z,72.00
2023-03-29T17:07:16.068Z,71.80
2023-03-29T17:09:46.160Z,72.00
2023-03-29T17:12:14.778Z,72.10
2023-03-29T17:14:43.386Z,72.40
2023-03-29T17:17:11.933Z,72.30
2023-03-29T17:19:40.695Z,72.40
2023-03-29T17:22:09.229Z,72.40
2023-03-29T17:24:37.755Z,72.70
2023-03-29T17:27:06.370Z,72.30
2023-03-29T17:29:35.131Z,72.50
2023-03-29T17:32:03.694Z,72.80
2023-03-29T17:34:32.873Z,72.70
2023-03-29T17:37:03.163Z,72.30
2023-03-29T17:39:31.950Z,72.40
2023-03-29T17:42:00.480Z,73.10
2023-03-29T17:44:29.081Z,72.90
2023-03-29T17:46:57.654Z,72.80
2023-03-29T17:49:26.267Z,73.30
2023-03-29T17:51:54.977Z,73.40
2023-03-29T17:54:23.538Z,73.30
2023-03-29T17:56:52.126Z,73.20
2023-03-29T17:59:20.690Z,73.50
2023-03-29T18:01:49.321Z,73.40
2023-03-29T18:04:18.018Z,73.10
2023-03-29T18:06:46.623Z,73.30
2023-03-29T18:09:15.184Z,73.60
2023-03-29T18:11:43.701Z,73.30
2023-03-29T18:14:12.197Z,73.30
2023-03-29T18:16:41.705Z,73.80
2023-03-29T18:19:10.783Z,73.80
2023-03-29T18:21:39.361Z,73.70
2023-03-29T18:24:07.936Z,73.90
2023-03-29T18:26:36.575Z,73.70
2023-03-29T18:29:05.744Z,73.70
2023-03-29T18:31:35.312Z,73.50
2023-03-29T18:34:03.840Z,73.90
2023-03-29T18:36:32.403Z,73.50
2023-03-29T18:39:02.609Z,74.00
2023-03-29T18:41:31.668Z,74.00
2023-03-29T18:44:00.658Z,74.30
2023-03-29T18:46:31.210Z,74.70
2023-03-29T18:49:01.263Z,74.60
2023-03-29T18:51:30.816Z,74.60
2023-03-29T18:53:59.420Z,75.20
2023-03-29T18:56:27.970Z,74.70
2023-03-29T18:58:56.471Z,75.20
2023-03-29T19:01:25.136Z,74.90
2023-03-29T19:03:53.755Z,75.40
2023-03-29T19:06:22.506Z,75.00
2023-03-29T19:08:51.303Z,75.00
2023-03-29T19:11:20.273Z,75.00
2023-03-29T19:13:50.513Z,75.00
2023-03-29T19:16:19.252Z,75.70
2023-03-29T19:18:47.872Z,75.70
2023-03-29T19:21:16.420Z,75.40
2023-03-29T19:23:45.906Z,75.50
2023-03-29T19:26:15.192Z,75.50
2023-03-29T19:28:43.695Z,75.80
2023-03-29T19:31:15.449Z,75.50
2023-03-29T19:33:43.923Z,75.90
2023-03-29T19:36:12.964Z,75.70
2023-03-29T19:38:41.604Z,76.10
2023-03-29T19:41:11.239Z,76.10
2023-03-29T19:43:39.762Z,76.10
2023-03-29T19:46:10.397Z,75.90
2023-03-29T19:48:39.477Z,76.20
2023-03-29T19:51:08.556Z,76.20
2023-03-29T19:53:38.774Z,76.50
2023-03-29T19:56:08.949Z,76.40
2023-03-29T19:58:37.527Z,76.60
2023-03-29T20:01:06.207Z,77.30
2023-03-29T20:03:35.971Z,76.90
2023-03-29T20:06:04.811Z,77.00
2023-03-29T20:08:34.940Z,76.90
2023-03-29T20:11:04.135Z,77.20
2023-03-29T20:13:38.661Z,77.60
2023-03-29T20:16:04.200Z,77.60
2023-03-29T20:18:32.735Z,77.80
2023-03-29T20:21:01.716Z,77.90
2023-03-29T20:23:31.339Z,78.10
2023-03-29T20:25:59.910Z,78.70
2023-03-29T20:28:29.065Z,78.80
2023-03-29T20:30:57.646Z,78.70
2023-03-29T20:33:26.348Z,78.70
2023-03-29T20:35:54.994Z,79.10
2023-03-29T20:38:23.498Z,79.40
2023-03-29T20:40:52.254Z,79.50
2023-03-29T20:43:20.901Z,79.60
2023-03-29T20:45:53.630Z,79.70
2023-03-29T20:48:21.914Z,79.90
2023-03-29T20:50:50.524Z,79.90
2023-03-29T20:53:20.406Z,79.90
2023-03-29T20:55:49.141Z,80.00
2023-03-29T20:58:18.037Z,80.00
2023-03-29T21:00:48.243Z,80.10
2023-03-29T21:03:17.840Z,80.20
2023-03-29T21:05:46.618Z,80.40
2023-03-29T21:08:16.819Z,80.50
2023-03-29T21:10:45.545Z,80.80
2023-03-29T21:13:14.087Z,81.10
2023-03-29T21:15:43.627Z,81.30
2023-03-29T21:18:12.352Z,81.60
2023-03-29T21:20:40.912Z,81.80
2023-03-29T21:23:09.451Z,82.00
2023-03-29T21:25:38.000Z,82.10
2023-03-29T21:28:06.581Z,82.20
2023-03-29T21:30:35.265Z,82.10
2023-03-29T21:33:03.935Z,82.10
2023-03-29T21:35:35.681Z,82.40
2023-03-29T21:38:04.192Z,82.40
2023-03-29T21:40:32.765Z,82.60
2023-03-29T21:43:01.316Z,82.70
2023-03-29T21:45:29.865Z,83.00
2023-03-29T21:47:58.522Z,83.20
2023-03-29T21:50:27.246Z,83.30
2023-03-29T21:52:55.892Z,83.50
2023-03-29T21:55:24.437Z,83.70
2023-03-29T21:57:53.030Z,83.80
2023-03-29T22:00:22.238Z,83.90
2023-03-29T22:02:51.479Z,84.10
2023-03-29T22:05:20.382Z,84.00
2023-03-29T22:07:52.611Z,84.20
2023-03-29T22:10:24.166Z,84.20
2023-03-29T22:12:53.073Z,84.10
2023-03-29T22:15:21.741Z,84.10
2023-03-29T22:17:52.019Z,84.20
2023-03-29T22:20:20.697Z,84.20
2023-03-29T22:22:50.359Z,84.20
2023-03-29T22:25:19.355Z,84.00
2023-03-29T22:27:48.839Z,84.00
2023-03-29T22:30:17.820Z,83.60
2023-03-29T22:32:46.430Z,83.40
2023-03-29T22:35:15.420Z,83.50
2023-03-29T22:37:44.418Z,83.30
2023-03-29T22:40:13.367Z,83.60
2023-03-29T22:42:42.082Z,83.50
2023-03-29T22:45:10.949Z,83.70
2023-03-29T22:47:39.780Z,83.90
2023-03-29T22:50:08.643Z,83.80
2023-03-29T22:52:37.332Z,83.90
2023-03-29T22:55:06.421Z,83.90
2023-03-29T22:57:34.937Z,84.00
2023-03-29T23:00:05.436Z,84.10
2023-03-29T23:02:33.974Z,84.20
2023-03-29T23:05:02.517Z,84.10
2023-03-29T23:07:31.133Z,84.00
2023-03-29T23:09:59.660Z,84.20
2023-03-29T23:12:28.240Z,84.20
2023-03-29T23:14:56.811Z,84.00
2023-03-29T23:17:25.733Z,84.00
2023-03-29T23:19:54.243Z,84.00
2023-03-29T23:22:23.570Z,84.00
2023-03-29T23:24:52.150Z,83.30
2023-03-29T23:27:20.684Z,83.20
2023-03-29T23:29:49.255Z,83.60
2023-03-29T23:32:17.842Z,83.60
2023-03-29T23:34:46.333Z,82.90
2023-03-29T23:37:14.833Z,82.90
2023-03-29T23:39:43.342Z,82.60
2023-03-29T23:42:11.880Z,83.00
2023-03-29T23:44:40.392Z,82.40
2023-03-29T23:47:09.172Z,82.40
2023-03-29T23:49:38.456Z,82.70
2023-03-29T23:52:07.023Z,82.90
2023-03-29T23:54:36.400Z,83.10
2023-03-29T23:57:04.975Z,83.00
2023-03-29T23:59:35.180Z,82.80
